Time;durP1;ratioP1;P1;durP2;ratioP2;P2;SDS_P1;SDS_P2;PMS_P1;PMS_P2;Temp;Humidity;BMP_temperature;BMP_pressure;BME280_temperature;BME280_humidity;BME280_pressure;Samples;Min_cycle;Max_cycle;Signal;HPM_P1;HPM_P2
2021/04/17 00:01:19;;;;;;;8.90;5.90;;;2.40;99.90;;;;;;5051006;28;20056;-75
2021/04/17 00:03:45;;;;;;;13.27;6.30;;;2.30;99.90;;;;;;5049844;28;20021;-75
2021/04/17 00:06:11;;;;;;;7.47;5.03;;;2.30;99.90;;;;;;5032905;28;20655;-75
2021/04/17 00:08:37;;;;;;;8.77;5.80;;;2.20;99.90;;;;;;5050360;28;20546;-75
2021/04/17 00:11:04;;;;;;;10.60;5.10;;;2.10;99.90;;;;;;5050623;28;20037;-75
2021/04/17 00:13:29;;;;;;;8.27;5.32;;;2.00;99.90;;;;;;5050213;28;20060;-75
2021/04/17 00:15:55;;;;;;;9.25;6.22;;;2.00;99.90;;;;;;5033607;28;20079;-75
2021/04/17 00:18:21;;;;;;;8.98;5.85;;;2.00;99.90;;;;;;5049219;28;20123;-75
2021/04/17 00:20:48;;;;;;;8.15;5.28;;;1.90;99.90;;;;;;5049412;28;20033;-75
2021/04/17 00:23:15;;;;;;;8.35;6.28;;;1.90;99.90;;;;;;5051451;28;20033;-75
2021/04/17 00:25:41;;;;;;;9.27;5.70;;;1.80;99.90;;;;;;5050094;28;20055;-75
2021/04/17 00:28:07;;;;;;;12.00;5.78;;;1.80;99.90;;;;;;5049032;28;20033;-75
2021/04/17 00:30:33;;;;;;;13.23;6.00;;;1.80;99.90;;;;;;5049191;28;20033;-75
2021/04/17 00:32:58;;;;;;;8.63;5.53;;;1.80;99.90;;;;;;5051063;28;20036;-75
2021/04/17 00:35:24;;;;;;;8.40;5.72;;;1.70;99.90;;;;;;5050855;28;20475;-75
2021/04/17 00:37:50;;;;;;;11.30;5.95;;;1.70;99.90;;;;;;5049125;28;20040;-75
2021/04/17 00:40:16;;;;;;;8.93;5.82;;;1.60;99.90;;;;;;5050917;28;20036;-75
2021/04/17 00:42:41;;;;;;;9.95;6.03;;;1.60;99.90;;;;;;5032462;28;20063;-75
2021/04/17 00:45:08;;;;;;;8.13;4.95;;;1.60;99.90;;;;;;5033115;28;20199;-75
2021/04/17 00:47:34;;;;;;;10.80;5.53;;;1.60;99.90;;;;;;5048230;28;20400;-75
2021/04/17 00:50:00;;;;;;;10.95;5.07;;;1.50;99.90;;;;;;5049712;28;20029;-75
2021/04/17 00:52:26;;;;;;;7.47;4.95;;;1.60;99.90;;;;;;5047643;28;20040;-75
2021/04/17 00:54:52;;;;;;;8.50;5.78;;;1.50;99.90;;;;;;5046029;28;20029;-75
2021/04/17 00:57:18;;;;;;;8.70;5.60;;;1.50;99.90;;;;;;5029693;28;20124;-75
2021/04/17 00:59:43;;;;;;;11.07;6.10;;;1.40;99.90;;;;;;5026462;28;20037;-75
2021/04/17 01:02:10;;;;;;;8.30;5.15;;;1.40;99.90;;;;;;5027501;28;20726;-75
2021/04/17 01:04:43;;;;;;;12.70;6.53;;;1.40;99.90;;;;;;5030598;28;20540;-75
2021/04/17 01:07:21;;;;;;;11.07;5.78;;;1.40;99.90;;;;;;5029992;28;20029;-75
2021/04/17 01:09:56;;;;;;;10.25;5.72;;;1.40;99.90;;;;;;5036739;28;20017;-75
2021/04/17 01:12:27;;;;;;;9.77;6.40;;;1.30;99.90;;;;;;5048739;28;20430;-75
2021/04/17 01:14:53;;;;;;;10.98;6.55;;;1.40;99.90;;;;;;5050542;28;20087;-75
2021/04/17 01:17:20;;;;;;;12.50;6.07;;;1.30;99.90;;;;;;5049764;28;20052;-75
2021/04/17 01:20:28;;;;;;;9.98;5.88;;;1.30;99.90;;;;;;5049117;28;20476;-75
2021/04/17 01:23:08;;;;;;;10.55;5.93;;;1.30;99.90;;;;;;5046590;28;20036;-75
2021/04/17 01:25:59;;;;;;;10.50;6.03;;;1.20;99.90;;;;;;5050051;28;20039;-75
2021/04/17 01:28:27;;;;;;;12.80;7.00;;;1.20;99.90;;;;;;5049617;28;20052;-75
2021/04/17 01:30:54;;;;;;;12.88;6.93;;;1.10;99.90;;;;;;5049402;28;20043;-75
2021/04/17 01:33:24;;;;;;;12.13;6.85;;;1.10;99.90;;;;;;5032309;28;20410;-75
2021/04/17 01:35:51;;;;;;;10.23;6.18;;;1.00;99.90;;;;;;5049889;28;20076;-75
2021/04/17 01:38:30;;;;;;;10.95;7.05;;;1.00;99.90;;;;;;5049575;28;20459;-75
2021/04/17 01:40:59;;;;;;;10.80;6.68;;;1.00;99.90;;;;;;5048761;28;20655;-75
2021/04/17 01:43:28;;;;;;;12.38;6.70;;;1.00;99.90;;;;;;5042075;28;20025;-75
2021/04/17 01:45:58;;;;;;;9.10;5.65;;;1.00;99.90;;;;;;5049626;28;20021;-75
2021/04/17 01:48:28;;;;;;;9.77;5.97;;;1.00;99.90;;;;;;5048301;28;20025;-75
2021/04/17 01:50:54;;;;;;;8.43;5.72;;;1.00;99.90;;;;;;5049597;28;20064;-75
2021/04/17 01:53:23;;;;;;;8.50;6.20;;;1.00;99.90;;;;;;5050178;28;20061;-75
2021/04/17 01:55:50;;;;;;;10.27;5.85;;;1.00;99.90;;;;;;5049665;28;20055;-75
2021/04/17 01:58:29;;;;;;;12.02;7.07;;;1.00;99.90;;;;;;5045124;28;20574;-75
2021/04/17 02:00:56;;;;;;;11.00;6.18;;;1.00;99.90;;;;;;5052976;28;20492;-75
2021/04/17 02:03:22;;;;;;;9.63;5.70;;;1.00;99.90;;;;;;5052751;28;20033;-75
2021/04/17 02:05:50;;;;;;;7.43;5.15;;;0.90;99.90;;;;;;5053657;28;20040;-75
2021/04/17 02:08:16;;;;;;;12.75;5.60;;;1.00;99.90;;;;;;5053273;28;20041;-75
2021/04/17 02:10:42;;;;;;;8.57;5.63;;;1.00;99.90;;;;;;5035011;28;20106;-75
2021/04/17 02:13:09;;;;;;;10.50;6.13;;;1.00;99.90;;;;;;5053695;28;20045;-75
2021/04/17 02:15:36;;;;;;;10.85;6.35;;;1.10;99.90;;;;;;5052511;28;20025;-75
2021/04/17 02:18:26;;;;;;;13.57;6.28;;;1.00;99.90;;;;;;5051809;28;20478;-75
2021/04/17 02:21:01;;;;;;;11.45;6.25;;;1.10;99.90;;;;;;5052926;28;20427;-75
2021/04/17 02:23:29;;;;;;;12.00;6.68;;;1.00;99.90;;;;;;5053657;28;20033;-75
2021/04/17 02:25:59;;;;;;;11.13;6.32;;;1.00;99.90;;;;;;5053281;28;20033;-75
2021/04/17 02:28:26;;;;;;;13.50;7.20;;;1.00;99.90;;;;;;5052992;28;20037;-75
2021/04/17 02:30:52;;;;;;;12.70;6.20;;;1.00;99.90;;;;;;5052670;28;20484;-75
2021/04/17 02:33:17;;;;;;;10.82;7.03;;;1.10;99.90;;;;;;5053392;28;20129;-75
2021/04/17 02:35:43;;;;;;;15.00;7.60;;;1.10;99.90;;;;;;5035351;28;20442;-75
2021/04/17 02:38:09;;;;;;;11.95;7.57;;;1.10;99.90;;;;;;5052601;28;20460;-75
2021/04/17 02:40:35;;;;;;;11.13;6.38;;;1.10;99.90;;;;;;5051440;28;20033;-75
2021/04/17 02:43:00;;;;;;;10.13;6.85;;;1.10;99.90;;;;;;5051894;28;20025;-75
2021/04/17 02:45:26;;;;;;;11.82;7.00;;;1.20;99.90;;;;;;5053165;28;20031;-75
2021/04/17 02:47:52;;;;;;;12.13;6.93;;;1.20;99.90;;;;;;5052488;28;20037;-75
2021/04/17 02:50:19;;;;;;;11.40;7.05;;;1.30;99.90;;;;;;5052930;28;20539;-75
2021/04/17 02:52:45;;;;;;;14.07;7.03;;;1.30;99.90;;;;;;5052537;28;20418;-75
2021/04/17 02:55:11;;;;;;;11.13;6.32;;;1.30;99.90;;;;;;5051552;28;20029;-75
2021/04/17 02:57:37;;;;;;;9.63;6.25;;;1.40;99.90;;;;;;5034449;28;20559;-75
2021/04/17 03:00:06;;;;;;;10.82;6.45;;;1.40;99.90;;;;;;5053055;28;20021;-75
2021/04/17 03:02:32;;;;;;;11.13;6.55;;;1.50;99.90;;;;;;5050821;28;20495;-75
2021/04/17 03:04:58;;;;;;;13.25;6.70;;;1.50;99.90;;;;;;5051294;28;20029;-75
2021/04/17 03:07:23;;;;;;;11.55;6.82;;;1.50;99.90;;;;;;5050932;28;20091;-75
2021/04/17 03:09:49;;;;;;;9.82;7.15;;;1.50;99.90;;;;;;5052536;28;20028;-75
2021/04/17 03:12:15;;;;;;;15.50;6.88;;;1.50;99.90;;;;;;5051227;28;20115;-75
2021/04/17 03:14:41;;;;;;;12.10;8.07;;;1.50;99.90;;;;;;5051512;28;20636;-75
2021/04/17 03:17:08;;;;;;;11.02;7.03;;;1.50;99.90;;;;;;5051819;28;20387;-75
2021/04/17 03:19:34;;;;;;;10.90;7.10;;;1.50;99.90;;;;;;5052591;28;20021;-75
2021/04/17 03:22:00;;;;;;;12.27;7.35;;;1.60;99.90;;;;;;5051890;28;20434;-75
2021/04/17 03:24:26;;;;;;;11.02;6.38;;;1.60;99.90;;;;;;5052157;28;20033;-75
2021/04/17 03:26:52;;;;;;;10.07;6.65;;;1.60;99.90;;;;;;5051512;28;20037;-75
2021/04/17 03:29:17;;;;;;;9.68;6.40;;;1.60;99.90;;;;;;5052475;28;20085;-75
2021/04/17 03:31:44;;;;;;;11.23;6.97;;;1.60;99.90;;;;;;5051461;28;20043;-75
2021/04/17 03:34:11;;;;;;;12.27;7.88;;;1.60;99.90;;;;;;5050807;28;20592;-75
2021/04/17 03:36:37;;;;;;;11.75;7.57;;;1.60;99.90;;;;;;5051419;28;20033;-75
2021/04/17 03:39:03;;;;;;;10.63;6.60;;;1.70;99.90;;;;;;5052140;28;20029;-75
2021/04/17 03:41:29;;;;;;;13.90;7.90;;;1.70;99.90;;;;;;5032834;28;20021;-75
2021/04/17 03:43:55;;;;;;;13.70;7.72;;;1.70;99.90;;;;;;5051978;28;20500;-75
2021/04/17 03:46:22;;;;;;;13.63;7.45;;;1.70;99.90;;;;;;5051363;28;20033;-75
2021/04/17 03:48:48;;;;;;;12.63;8.13;;;1.70;99.90;;;;;;5049506;28;20040;-75
2021/04/17 03:51:13;;;;;;;13.88;7.30;;;1.70;99.90;;;;;;5050896;28;20029;-75
2021/04/17 03:53:39;;;;;;;11.93;7.60;;;1.70;99.90;;;;;;5050666;28;20033;-75
2021/04/17 03:56:06;;;;;;;14.63;8.77;;;1.70;99.90;;;;;;5051580;28;20029;-75
2021/04/17 03:58:31;;;;;;;9.95;7.65;;;1.70;99.90;;;;;;5051254;28;20025;-75
2021/04/17 04:00:57;;;;;;;12.98;8.27;;;1.70;99.90;;;;;;5049769;28;20466;-75
2021/04/17 04:03:23;;;;;;;18.02;8.63;;;1.70;99.90;;;;;;5051434;28;20033;-75
2021/04/17 04:05:48;;;;;;;14.70;8.85;;;1.70;99.90;;;;;;5051715;28;20037;-75
2021/04/17 04:08:14;;;;;;;13.60;8.40;;;1.70;99.90;;;;;;5051080;28;20037;-75
2021/04/17 04:10:40;;;;;;;16.83;8.38;;;1.70;99.90;;;;;;5049295;28;20108;-75
2021/04/17 04:13:05;;;;;;;11.70;7.72;;;1.70;99.90;;;;;;5051553;28;20538;-75
2021/04/17 04:15:31;;;;;;;14.13;7.35;;;1.80;99.90;;;;;;5051396;28;20582;-75
2021/04/17 04:17:57;;;;;;;16.25;8.00;;;1.80;99.90;;;;;;5049457;28;20048;-75
2021/04/17 04:20:22;;;;;;;15.38;8.57;;;1.80;99.90;;;;;;5051195;28;20025;-75
2021/04/17 04:22:48;;;;;;;11.55;7.78;;;1.80;99.90;;;;;;5049588;28;20384;-75
2021/04/17 04:25:14;;;;;;;12.40;7.43;;;1.80;99.90;;;;;;5051231;28;20037;-75
2021/04/17 04:27:40;;;;;;;13.15;8.13;;;1.80;99.90;;;;;;5050625;28;20029;-75
2021/04/17 04:30:09;;;;;;;11.50;7.72;;;1.90;99.90;;;;;;5033191;28;20040;-75
2021/04/17 04:32:36;;;;;;;12.30;7.57;;;1.90;99.90;;;;;;5048856;28;20032;-75
2021/04/17 04:35:03;;;;;;;12.75;7.45;;;1.90;99.90;;;;;;5051010;28;20082;-75
2021/04/17 04:37:29;;;;;;;11.73;7.15;;;1.90;99.90;;;;;;5050469;28;20457;-75
2021/04/17 04:39:54;;;;;;;13.27;7.38;;;2.00;99.90;;;;;;5033217;28;20156;-75
2021/04/17 04:42:20;;;;;;;11.32;6.78;;;2.00;99.90;;;;;;5050173;28;20107;-75
2021/04/17 04:44:46;;;;;;;10.98;6.63;;;2.00;99.90;;;;;;5050989;28;20040;-75
2021/04/17 04:47:12;;;;;;;11.65;6.63;;;2.00;99.90;;;;;;5050045;28;20037;-75
2021/04/17 04:49:37;;;;;;;11.35;6.85;;;2.10;99.90;;;;;;5051280;28;20048;-75
2021/04/17 04:52:03;;;;;;;9.80;6.45;;;2.10;99.90;;;;;;5049802;28;20139;-75
2021/04/17 04:54:29;;;;;;;10.98;5.97;;;2.20;99.90;;;;;;5049605;28;20037;-75
2021/04/17 04:56:55;;;;;;;10.48;5.97;;;2.20;99.90;;;;;;5049871;28;20045;-75
2021/04/17 04:59:20;;;;;;;8.90;5.78;;;2.20;99.90;;;;;;5032816;28;20045;-75
2021/04/17 05:01:46;;;;;;;10.85;6.53;;;2.20;99.90;;;;;;5022958;28;20396;-75
2021/04/17 05:04:12;;;;;;;11.63;6.45;;;2.20;99.90;;;;;;5032492;28;20029;-75
2021/04/17 05:06:37;;;;;;;9.82;6.05;;;2.30;99.90;;;;;;5048174;28;20037;-75
2021/04/17 05:09:05;;;;;;;13.00;5.38;;;2.30;99.90;;;;;;5048895;28;20036;-75
2021/04/17 05:11:32;;;;;;;8.90;5.60;;;2.30;99.90;;;;;;5034126;28;20095;-75
2021/04/17 05:13:58;;;;;;;9.05;5.25;;;2.30;99.90;;;;;;5029686;28;20083;-74
2021/04/17 05:16:24;;;;;;;10.15;5.28;;;2.30;99.90;;;;;;5028673;28;20045;-74
2021/04/17 05:18:50;;;;;;;9.85;5.85;;;2.30;99.90;;;;;;5030317;28;20128;-75
2021/04/17 05:21:15;;;;;;;11.43;5.28;;;2.40;99.90;;;;;;5044758;28;20192;-74
2021/04/17 05:23:41;;;;;;;7.28;4.20;;;2.40;99.90;;;;;;5029323;28;20029;-75
2021/04/17 05:26:07;;;;;;;9.40;5.38;;;2.40;99.90;;;;;;5045473;28;20578;-74
2021/04/17 05:28:32;;;;;;;8.77;4.82;;;2.40;99.90;;;;;;5030198;28;20083;-74
2021/04/17 05:30:58;;;;;;;7.28;4.30;;;2.50;99.90;;;;;;5029300;28;20392;-74
2021/04/17 05:33:24;;;;;;;9.38;5.00;;;2.50;99.90;;;;;;5028884;28;20038;-75
2021/04/17 05:35:50;;;;;;;7.50;4.03;;;2.50;99.90;;;;;;5030124;28;20473;-74
2021/04/17 05:38:16;;;;;;;7.18;4.28;;;2.70;99.90;;;;;;5029623;28;20033;-74
2021/04/17 05:40:42;;;;;;;6.93;4.00;;;2.80;99.90;;;;;;5035335;28;20025;-75
2021/04/17 05:43:07;;;;;;;6.85;4.15;;;2.90;99.90;;;;;;5032080;28;20411;-75
2021/04/17 05:45:33;;;;;;;8.13;4.30;;;3.00;99.90;;;;;;5049865;28;20468;-75
2021/04/17 05:47:59;;;;;;;6.55;4.03;;;3.20;99.90;;;;;;5048285;28;20040;-75
2021/04/17 05:50:24;;;;;;;7.28;4.25;;;3.40;99.90;;;;;;5049261;28;20029;-74
2021/04/17 05:52:50;;;;;;;6.40;4.13;;;3.60;99.90;;;;;;5048614;28;20028;-75
2021/04/17 05:55:16;;;;;;;7.57;4.03;;;3.80;99.90;;;;;;5049905;28;20032;-75
2021/04/17 05:57:42;;;;;;;6.78;3.45;;;4.10;99.90;;;;;;5047220;28;20033;-74
2021/04/17 06:00:09;;;;;;;4.28;2.83;;;4.50;99.90;;;;;;5047869;28;20045;-75
2021/04/17 06:02:34;;;;;;;5.03;3.35;;;4.70;99.90;;;;;;5047946;28;20127;-75
2021/04/17 06:05:00;;;;;;;4.03;2.22;;;5.00;99.90;;;;;;5048296;28;20120;-74
2021/04/17 06:07:26;;;;;;;3.83;2.58;;;5.00;99.90;;;;;;5047831;28;20102;-74
2021/04/17 06:09:52;;;;;;;5.43;2.17;;;5.00;99.90;;;;;;5045155;28;20076;-75
2021/04/17 06:12:17;;;;;;;5.85;3.40;;;5.00;99.90;;;;;;5036425;28;20040;-75
2021/04/17 06:14:43;;;;;;;3.08;2.47;;;5.00;99.90;;;;;;5030720;28;20403;-75
2021/04/17 06:17:09;;;;;;;4.07;2.45;;;5.00;99.90;;;;;;5030569;28;20118;-75
2021/04/17 06:19:34;;;;;;;3.53;2.03;;;5.00;99.90;;;;;;5019657;28;20030;-75
2021/04/17 06:22:00;;;;;;;4.75;2.10;;;5.00;99.90;;;;;;5048385;28;20033;-75
2021/04/17 06:24:26;;;;;;;5.15;2.05;;;5.00;99.90;;;;;;5049411;28;20033;-74
2021/04/17 06:26:51;;;;;;;6.20;2.55;;;4.90;99.90;;;;;;5028733;28;20025;-74
2021/04/17 06:29:17;;;;;;;3.22;2.55;;;5.00;99.90;;;;;;5038447;28;21395;-75
2021/04/17 06:31:43;;;;;;;6.18;2.38;;;5.00;99.90;;;;;;5047037;28;20047;-75
2021/04/17 06:34:09;;;;;;;7.10;2.53;;;5.00;99.90;;;;;;5046596;28;20108;-75
2021/04/17 06:36:34;;;;;;;4.70;2.90;;;5.00;99.90;;;;;;5048579;28;20448;-75
2021/04/17 06:39:00;;;;;;;6.43;2.53;;;5.00;99.90;;;;;;5031550;28;20044;-75
2021/04/17 06:41:27;;;;;;;4.00;2.20;;;5.00;99.90;;;;;;5047733;28;20109;-74
2021/04/17 06:43:54;;;;;;;5.47;1.85;;;5.00;99.90;;;;;;5045399;28;20112;-75
2021/04/17 06:46:20;;;;;;;4.00;2.30;;;5.00;99.90;;;;;;5048186;28;20491;-74
2021/04/17 06:48:47;;;;;;;4.50;2.60;;;5.00;99.90;;;;;;5052952;28;20092;-75
2021/04/17 06:51:16;;;;;;;4.15;2.42;;;5.00;99.90;;;;;;5050596;28;20037;-75
2021/04/17 06:53:42;;;;;;;3.95;2.67;;;5.00;99.90;;;;;;5026749;28;20452;-75
2021/04/17 06:56:09;;;;;;;3.88;2.40;;;5.00;99.90;;;;;;5051734;28;20029;-75
2021/04/17 06:58:38;;;;;;;4.38;2.00;;;5.00;99.90;;;;;;5052406;28;20116;-75
2021/04/17 07:01:04;;;;;;;5.50;2.45;;;5.00;99.90;;;;;;5025753;28;20029;-75
2021/04/17 07:03:30;;;;;;;5.55;2.38;;;4.90;99.90;;;;;;5013125;28;20167;-75
2021/04/17 07:05:55;;;;;;;4.80;1.90;;;4.90;99.90;;;;;;5051239;28;20045;-76
2021/04/17 07:08:21;;;;;;;2.83;1.70;;;4.70;99.90;;;;;;5042352;28;20025;-74
2021/04/17 07:10:47;;;;;;;4.95;2.33;;;4.60;99.90;;;;;;5033513;28;20419;-75
2021/04/17 07:13:15;;;;;;;3.28;1.60;;;4.40;99.90;;;;;;5048392;28;20036;-75
2021/04/17 07:15:42;;;;;;;3.42;1.90;;;4.20;99.90;;;;;;5051776;28;20159;-75
2021/04/17 07:18:26;;;;;;;3.88;1.70;;;4.10;99.90;;;;;;5051047;28;20559;-74
2021/04/17 07:20:58;;;;;;;4.10;1.50;;;4.00;99.90;;;;;;5049810;28;20480;-74
2021/04/17 07:23:32;;;;;;;3.45;1.45;;;3.90;99.90;;;;;;5049541;28;20021;-75
2021/04/17 07:26:13;;;;;;;2.90;2.20;;;3.90;99.90;;;;;;5050350;28;20043;-75
2021/04/17 07:28:57;;;;;;;3.63;1.60;;;3.90;99.90;;;;;;5049827;28;20041;-75
2021/04/17 07:31:24;;;;;;;4.70;1.90;;;3.80;99.90;;;;;;5047406;28;20091;-75
2021/04/17 07:33:51;;;;;;;2.90;1.90;;;3.70;99.90;;;;;;5051784;28;20035;-75
2021/04/17 07:36:18;;;;;;;3.03;1.80;;;3.70;99.90;;;;;;5051144;28;20032;-75
2021/04/17 07:38:45;;;;;;;6.03;2.47;;;3.80;99.90;;;;;;5052178;28;20052;-75
2021/04/17 07:41:19;;;;;;;3.05;2.15;;;3.80;99.90;;;;;;5050886;28;20060;-75
2021/04/17 07:44:05;;;;;;;2.97;1.90;;;3.70;99.90;;;;;;5031300;28;20032;-75
2021/04/17 07:46:39;;;;;;;;;;;3.70;99.90;;;;;;5039720;28;20059;-75
2021/04/17 07:49:18;;;;;;;3.85;2.05;;;3.80;99.90;;;;;;5051923;28;19932;-75
2021/04/17 07:52:11;;;;;;;3.55;2.05;;;3.70;99.90;;;;;;5033255;28;20040;-75
2021/04/17 07:54:38;;;;;;;5.95;2.30;;;3.70;99.90;;;;;;5048737;28;20029;-75
2021/04/17 07:57:09;;;;;;;2.72;1.92;;;3.80;99.90;;;;;;5045982;28;20037;-75
2021/04/17 07:59:37;;;;;;;4.57;2.45;;;3.80;99.90;;;;;;5046853;28;20068;-75
2021/04/17 08:02:04;;;;;;;3.15;2.03;;;3.80;99.90;;;;;;5045183;28;20682;-75
2021/04/17 08:04:30;;;;;;;3.03;2.10;;;3.70;99.90;;;;;;5045933;28;20112;-75
2021/04/17 08:06:57;;;;;;;3.53;2.25;;;3.70;99.90;;;;;;5045711;28;20372;-74
2021/04/17 08:09:24;;;;;;;3.35;2.42;;;3.80;99.90;;;;;;5046823;28;20068;-75
2021/04/17 08:11:53;;;;;;;5.22;2.20;;;3.80;99.90;;;;;;5048633;28;20043;-75
2021/04/17 08:14:21;;;;;;;4.25;2.50;;;3.80;99.90;;;;;;5049543;28;20814;-75
2021/04/17 08:16:49;;;;;;;3.58;2.47;;;3.90;99.90;;;;;;5048995;28;20061;-75
2021/04/17 08:19:16;;;;;;;4.00;2.00;;;3.90;99.90;;;;;;5049764;28;20039;-76
2021/04/17 08:21:43;;;;;;;4.30;2.45;;;3.90;99.90;;;;;;5048955;28;20017;-75
2021/04/17 08:24:10;;;;;;;3.63;2.10;;;3.90;99.90;;;;;;5048852;28;20128;-75
2021/04/17 08:26:37;;;;;;;3.95;2.78;;;3.90;99.90;;;;;;5044426;28;20075;-75
2021/04/17 08:29:03;;;;;;;4.45;2.38;;;4.00;99.90;;;;;;5039172;28;20401;-75
2021/04/17 08:31:33;;;;;;;5.80;2.63;;;4.00;99.90;;;;;;5040626;28;20029;-74
2021/04/17 08:34:20;;;;;;;4.47;2.88;;;4.00;99.90;;;;;;5044702;28;20037;-74
2021/04/17 08:36:51;;;;;;;4.57;2.88;;;4.00;99.90;;;;;;5038490;28;20040;-74
2021/04/17 08:39:40;;;;;;;5.60;3.30;;;4.10;99.90;;;;;;5044973;28;20083;-74
2021/04/17 08:42:14;;;;;;;5.22;2.83;;;4.10;99.90;;;;;;5046029;28;20375;-74
2021/04/17 08:44:45;;;;;;;4.75;3.45;;;4.10;99.90;;;;;;5037389;28;20033;-75
2021/04/17 08:47:12;;;;;;;5.30;3.50;;;4.10;99.90;;;;;;5043450;28;20025;-75
2021/04/17 08:49:40;;;;;;;3.92;3.28;;;4.10;99.90;;;;;;5046088;28;20043;-74
2021/04/17 08:52:08;;;;;;;8.82;3.60;;;3.90;99.90;;;;;;5044737;28;20466;-74
2021/04/17 08:54:34;;;;;;;3.72;2.75;;;3.90;99.90;;;;;;5042301;28;20013;-75
2021/04/17 08:57:10;;;;;;;4.95;3.50;;;4.00;99.90;;;;;;5039236;28;20112;-76
2021/04/17 08:59:37;;;;;;;5.55;3.10;;;4.10;99.90;;;;;;5040832;28;20500;-75
2021/04/17 09:02:07;;;;;;;6.43;3.92;;;4.20;99.90;;;;;;5046200;28;20049;-76
2021/04/17 09:04:36;;;;;;;5.45;3.40;;;4.30;99.90;;;;;;5025270;28;20052;-75
2021/04/17 09:07:15;;;;;;;6.93;3.28;;;4.20;99.90;;;;;;5043873;28;20037;-74
2021/04/17 09:09:41;;;;;;;6.10;3.30;;;4.20;99.90;;;;;;5043161;28;20033;-75
2021/04/17 09:12:10;;;;;;;4.18;3.30;;;4.30;99.90;;;;;;5041492;28;20029;-74
2021/04/17 09:14:36;;;;;;;5.50;3.45;;;4.30;99.90;;;;;;5040780;28;20028;-75
2021/04/17 09:17:08;;;;;;;5.18;3.40;;;4.30;99.90;;;;;;5041088;28;20545;-75
2021/04/17 09:19:40;;;;;;;4.40;3.10;;;4.40;99.90;;;;;;5045883;28;20104;-75
2021/04/17 09:22:27;;;;;;;3.63;2.90;;;4.40;99.90;;;;;;5042194;28;20028;-74
2021/04/17 09:24:59;;;;;;;5.47;2.70;;;4.30;99.90;;;;;;5044401;28;20020;-75
2021/04/17 09:27:29;;;;;;;4.50;2.80;;;4.40;99.90;;;;;;5045202;28;20021;-76
2021/04/17 09:30:13;;;;;;;4.47;2.65;;;4.40;99.90;;;;;;5044767;28;20061;-75
2021/04/17 09:32:47;;;;;;;4.70;3.13;;;4.50;99.90;;;;;;5044313;28;20128;-75
2021/04/17 09:35:16;;;;;;;5.32;3.05;;;4.60;99.90;;;;;;5045650;28;20044;-75
2021/04/17 09:37:43;;;;;;;3.97;2.50;;;4.60;99.90;;;;;;5037876;28;20112;-77
2021/04/17 09:40:11;;;;;;;3.90;2.90;;;4.60;99.90;;;;;;5044390;28;20032;-77
2021/04/17 09:42:37;;;;;;;3.63;2.83;;;4.70;99.90;;;;;;5026145;28;20041;-77
2021/04/17 09:45:09;;;;;;;4.32;3.13;;;4.70;99.90;;;;;;5045746;28;20068;-77
2021/04/17 09:47:36;;;;;;;4.38;2.92;;;4.70;99.90;;;;;;5050977;28;20476;-78
2021/04/17 09:50:03;;;;;;;6.35;2.47;;;4.60;99.90;;;;;;5045799;28;20068;-77
2021/04/17 09:52:29;;;;;;;7.03;2.88;;;4.60;99.90;;;;;;5045236;28;20025;-77
2021/04/17 09:55:04;;;;;;;3.70;2.75;;;4.60;99.90;;;;;;5039895;28;20030;-76
2021/04/17 09:57:30;;;;;;;3.28;2.65;;;4.60;99.90;;;;;;5043939;28;20037;-77
2021/04/17 09:59:59;;;;;;;5.57;3.15;;;4.60;99.90;;;;;;5042250;28;20064;-78
2021/04/17 10:02:40;;;;;;;4.22;2.88;;;4.60;99.90;;;;;;5026972;28;20029;-77
2021/04/17 10:05:06;;;;;;;3.45;2.58;;;4.60;99.90;;;;;;5041498;28;20030;-77
2021/04/17 10:07:51;;;;;;;3.90;2.78;;;4.60;99.90;;;;;;5039985;28;20033;-77
2021/04/17 10:10:17;;;;;;;2.95;2.65;;;4.60;99.90;;;;;;5042547;28;20544;-78
2021/04/17 10:12:51;;;;;;;3.95;2.80;;;4.50;99.90;;;;;;5044770;28;20035;-77
2021/04/17 10:15:23;;;;;;;4.07;3.05;;;4.60;99.90;;;;;;5045450;28;20523;-78
2021/04/17 10:17:51;;;;;;;5.57;3.05;;;4.50;99.90;;;;;;5043778;28;20029;-78
2021/04/17 10:20:17;;;;;;;5.43;3.40;;;4.50;99.90;;;;;;5019394;28;20064;-77
2021/04/17 10:22:50;;;;;;;3.72;3.00;;;4.50;99.90;;;;;;5039557;28;20866;-77
2021/04/17 10:25:33;;;;;;;3.47;2.80;;;4.60;99.90;;;;;;5049607;28;20061;-77
2021/04/17 10:28:10;;;;;;;3.78;3.03;;;4.80;99.90;;;;;;5039332;28;20121;-77
2021/04/17 10:30:36;;;;;;;4.07;2.80;;;4.90;99.90;;;;;;5048329;28;20061;-77
2021/04/17 10:33:02;;;;;;;6.72;3.30;;;5.00;99.90;;;;;;5045928;28;20032;-77
2021/04/17 10:35:33;;;;;;;5.07;3.45;;;5.00;99.90;;;;;;5049251;28;20036;-77
2021/04/17 10:38:00;;;;;;;5.38;3.38;;;5.10;99.90;;;;;;5047120;28;20093;-77
2021/04/17 10:40:26;;;;;;;3.42;2.50;;;5.20;99.90;;;;;;5049832;28;20021;-75
2021/04/17 10:42:57;;;;;;;3.97;3.33;;;5.30;99.90;;;;;;5044731;28;20025;-74
2021/04/17 10:45:37;;;;;;;7.97;3.88;;;5.50;99.90;;;;;;5047885;28;20048;-75
2021/04/17 10:48:16;;;;;;;3.38;2.95;;;5.60;99.90;;;;;;5048592;28;20459;-75
2021/04/17 10:50:52;;;;;;;4.88;3.25;;;5.70;99.90;;;;;;5047948;28;20067;-74
2021/04/17 10:53:24;;;;;;;4.88;3.33;;;5.90;99.90;;;;;;5042440;28;20638;-74
2021/04/17 10:55:52;;;;;;;3.92;3.03;;;6.10;99.90;;;;;;5046954;28;20476;-74
2021/04/17 10:58:25;;;;;;;4.45;3.60;;;6.20;99.90;;;;;;5016431;28;20111;-74
2021/04/17 11:01:00;;;;;;;4.60;3.50;;;6.50;99.90;;;;;;5049093;28;20392;-74
2021/04/17 11:03:39;;;;;;;4.65;3.50;;;6.80;99.90;;;;;;5047706;28;20482;-75
2021/04/17 11:06:33;;;;;;;4.57;3.08;;;7.00;99.90;;;;;;5046452;28;20031;-75
2021/04/17 11:09:09;;;;;;;4.30;3.13;;;7.30;99.90;;;;;;5047550;28;20067;-74
2021/04/17 11:11:36;;;;;;;6.78;3.90;;;7.30;99.90;;;;;;5047056;28;20025;-74
2021/04/17 11:14:04;;;;;;;5.03;3.70;;;7.40;99.90;;;;;;5047105;28;20546;-75
2021/04/17 11:16:36;;;;;;;4.20;3.55;;;7.50;99.90;;;;;;5045177;28;20075;-75
2021/04/17 11:19:01;;;;;;;4.97;2.78;;;7.60;99.90;;;;;;5045364;28;20067;-74
2021/04/17 11:21:27;;;;;;;4.55;3.00;;;7.60;99.90;;;;;;5043539;28;20072;-74
2021/04/17 11:23:55;;;;;;;4.53;2.97;;;7.40;99.90;;;;;;5044549;28;20079;-73
2021/04/17 11:26:38;;;;;;;3.97;2.63;;;7.30;99.90;;;;;;5024686;28;20114;-73
2021/04/17 11:29:04;;;;;;;4.15;2.88;;;7.10;99.90;;;;;;5039315;28;20026;-74
2021/04/17 11:31:33;;;;;;;3.15;2.50;;;7.00;99.90;;;;;;5044642;28;20625;-75
2021/04/17 11:34:01;;;;;;;5.80;3.53;;;6.90;99.90;;;;;;5026125;28;20041;-74
2021/04/17 11:36:29;;;;;;;4.70;3.40;;;6.90;99.90;;;;;;5042974;28;20029;-74
2021/04/17 11:38:55;;;;;;;5.05;3.20;;;6.70;99.90;;;;;;5045411;28;20056;-74
2021/04/17 11:41:21;;;;;;;4.03;3.28;;;6.60;99.90;;;;;;5047782;28;20024;-74
2021/04/17 11:43:47;;;;;;;4.32;3.40;;;6.40;99.90;;;;;;5038221;28;20029;-74
2021/04/17 11:46:14;;;;;;;5.20;3.15;;;6.30;99.90;;;;;;5039879;28;20442;-74
2021/04/17 11:48:42;;;;;;;4.05;2.35;;;6.20;99.90;;;;;;5037235;28;20025;-74
2021/04/17 11:51:09;;;;;;;3.05;2.55;;;6.10;99.90;;;;;;5046018;28;20040;-74
2021/04/17 11:53:36;;;;;;;4.90;2.95;;;6.00;99.90;;;;;;5048227;28;20031;-74
2021/04/17 11:56:03;;;;;;;3.45;2.65;;;5.90;99.90;;;;;;5047772;28;20108;-74
2021/04/17 11:58:29;;;;;;;2.80;2.40;;;5.80;99.90;;;;;;5020898;28;20051;-74
2021/04/17 12:00:55;;;;;;;6.32;3.22;;;5.80;99.90;;;;;;5045577;28;20508;-74
2021/04/17 12:03:21;;;;;;;3.40;2.92;;;5.70;99.90;;;;;;5044878;28;20060;-74
2021/04/17 12:05:51;;;;;;;4.13;3.00;;;5.70;99.90;;;;;;5040946;28;20021;-74
2021/04/17 12:08:18;;;;;;;3.75;2.78;;;5.60;99.90;;;;;;5044541;28;20060;-74
2021/04/17 12:10:44;;;;;;;5.30;3.53;;;5.70;99.90;;;;;;5044935;28;20487;-73
2021/04/17 12:13:10;;;;;;;4.88;3.35;;;5.70;99.90;;;;;;5045234;28;20041;-74
2021/04/17 12:15:37;;;;;;;3.78;2.90;;;5.80;99.90;;;;;;5046636;28;20129;-74
2021/04/17 12:18:03;;;;;;;6.45;3.22;;;5.70;99.90;;;;;;5045269;28;20139;-73
2021/04/17 12:20:29;;;;;;;6.93;3.25;;;5.70;99.90;;;;;;5049162;28;20108;-74
2021/04/17 12:22:55;;;;;;;3.53;3.03;;;5.80;99.90;;;;;;5048191;28;20037;-75
2021/04/17 12:25:22;;;;;;;4.18;3.42;;;6.00;99.90;;;;;;5049420;28;20032;-75
2021/04/17 12:27:48;;;;;;;4.80;3.10;;;6.10;99.90;;;;;;5043349;28;20033;-74
2021/04/17 12:30:17;;;;;;;4.47;3.45;;;6.20;99.90;;;;;;5038130;28;20044;-75
2021/04/17 12:32:43;;;;;;;3.92;2.88;;;6.20;99.90;;;;;;5026193;28;20040;-73
2021/04/17 12:35:12;;;;;;;5.68;3.60;;;6.20;99.90;;;;;;5046535;28;20029;-74
2021/04/17 12:37:38;;;;;;;5.38;3.55;;;6.10;99.90;;;;;;5046993;28;20029;-73
2021/04/17 12:40:05;;;;;;;5.85;3.72;;;6.00;99.90;;;;;;5046767;28;20384;-73
2021/04/17 12:42:32;;;;;;;5.65;4.10;;;5.80;99.90;;;;;;5045794;28;20052;-74
2021/04/17 12:44:57;;;;;;;4.47;3.85;;;5.70;99.90;;;;;;5046423;28;20095;-73
2021/04/17 12:47:23;;;;;;;8.35;4.40;;;5.60;99.90;;;;;;5046021;28;20048;-73
2021/04/17 12:49:49;;;;;;;7.50;4.72;;;5.50;99.90;;;;;;5046986;28;20041;-73
2021/04/17 12:52:15;;;;;;;6.43;5.10;;;5.50;99.90;;;;;;5046038;28;20028;-74
2021/04/17 12:54:40;;;;;;;8.50;5.45;;;5.40;99.90;;;;;;5036852;28;20132;-74
2021/04/17 12:57:06;;;;;;;7.93;5.72;;;5.40;99.90;;;;;;5036081;28;20033;-73
2021/04/17 12:59:32;;;;;;;8.18;5.90;;;5.40;99.90;;;;;;5051972;28;20083;-73
2021/04/17 13:01:57;;;;;;;12.63;6.55;;;5.40;99.90;;;;;;5020312;28;20033;-73